createdAt,value
2023-03-03T00:00:30.874Z,1.80
2023-03-03T00:03:08.891Z,1.70
2023-03-03T00:05:40.147Z,1.70
2023-03-03T00:08:10.560Z,1.40
2023-03-03T00:10:42.347Z,1.40
2023-03-03T00:13:22.049Z,1.30
2023-03-03T00:15:52.540Z,1.20
2023-03-03T00:18:31.710Z,1.10
2023-03-03T00:21:03.661Z,1.10
2023-03-03T00:23:39.530Z,1.10
2023-03-03T00:26:24.552Z,1.00
2023-03-03T00:28:57.866Z,1.00
2023-03-03T00:31:36.189Z,0.90
2023-03-03T00:34:28.161Z,0.70
2023-03-03T00:37:00.715Z,0.70
2023-03-03T00:39:36.741Z,0.60
2023-03-03T00:42:16.467Z,0.70
2023-03-03T00:44:50.902Z,0.90
2023-03-03T00:47:32.792Z,0.70
2023-03-03T00:50:36.170Z,0.60
2023-03-03T00:53:17.232Z,0.40
2023-03-03T00:55:49.615Z,0.30
2023-03-03T00:58:21.982Z,0.20
2023-03-03T01:00:58.987Z,0.00
2023-03-03T01:03:39.106Z,0.00
2023-03-03T01:06:10.118Z,0.00
2023-03-03T01:08:40.205Z,0.20
2023-03-03T01:11:16.591Z,0.20
2023-03-03T01:13:50.882Z,0.10
2023-03-03T01:16:24.386Z,0.10
2023-03-03T01:18:54.351Z,0.10
2023-03-03T01:21:25.366Z,0.00
2023-03-03T01:23:55.379Z,0.00
2023-03-03T01:26:25.912Z,0.20
2023-03-03T01:28:55.917Z,0.20
2023-03-03T01:31:28.638Z,0.20
2023-03-03T01:33:58.657Z,0.20
2023-03-03T01:36:29.698Z,0.20
2023-03-03T01:39:00.023Z,0.10
2023-03-03T01:41:33.515Z,0.10
2023-03-03T01:44:04.354Z,0.20
2023-03-03T01:46:58.081Z,0.10
2023-03-03T01:49:36.252Z,0.00
2023-03-03T01:52:16.124Z,0.00
2023-03-03T01:54:54.286Z,0.00
2023-03-03T01:57:32.610Z,-0.20
2023-03-03T02:00:06.108Z,-0.30
2023-03-03T02:02:47.757Z,-0.40
2023-03-03T02:05:19.714Z,-0.60
2023-03-03T02:07:50.494Z,-0.60
2023-03-03T02:10:24.083Z,-0.60
2023-03-03T02:12:57.458Z,-0.50
2023-03-03T02:15:32.271Z,-0.60
2023-03-03T02:18:10.001Z,-0.60
2023-03-03T02:21:00.445Z,-0.60
2023-03-03T02:23:39.763Z,-0.20
2023-03-03T02:26:18.825Z,-0.40
2023-03-03T02:28:48.905Z,-0.70
2023-03-03T02:31:23.408Z,-0.70
2023-03-03T02:33:56.156Z,-0.60
2023-03-03T02:36:30.057Z,-0.60
2023-03-03T02:39:12.902Z,-0.70
2023-03-03T02:41:54.028Z,-0.60
2023-03-03T02:44:28.870Z,-0.60
2023-03-03T02:47:01.105Z,-0.60
2023-03-03T02:49:36.167Z,-0.50
2023-03-03T02:52:11.410Z,-0.30
2023-03-03T02:54:44.299Z,-0.10
2023-03-03T02:57:17.581Z,0.10
2023-03-03T02:59:47.554Z,0.40
2023-03-03T03:02:21.056Z,0.50
2023-03-03T03:04:51.192Z,0.70
2023-03-03T03:07:25.699Z,0.70
2023-03-03T03:09:56.010Z,1.00
2023-03-03T03:12:28.594Z,1.20
2023-03-03T03:15:00.628Z,1.20
2023-03-03T03:17:31.443Z,1.10
2023-03-03T03:20:02.998Z,0.90
2023-03-03T03:22:33.874Z,1.10
2023-03-03T03:25:04.084Z,1.20
2023-03-03T03:27:37.998Z,1.30
2023-03-03T03:30:10.378Z,1.40
2023-03-03T03:32:40.638Z,1.30
2023-03-03T03:35:11.875Z,1.10
2023-03-03T03:37:42.004Z,1.30
2023-03-03T03:40:14.471Z,1.30
2023-03-03T03:42:47.185Z,1.30
2023-03-03T03:45:17.624Z,1.30
2023-03-03T03:47:49.913Z,1.50
2023-03-03T03:50:20.312Z,1.50
2023-03-03T03:52:51.392Z,1.60
2023-03-03T03:55:22.612Z,1.70
2023-03-03T03:57:56.065Z,1.70
2023-03-03T04:00:26.693Z,1.80
2023-03-03T04:03:01.355Z,1.90
2023-03-03T04:05:31.785Z,2.00
2023-03-03T04:08:01.932Z,2.00
2023-03-03T04:10:31.958Z,2.10
2023-03-03T04:13:04.960Z,2.10
2023-03-03T04:15:36.365Z,2.20
2023-03-03T04:18:07.555Z,2.20
2023-03-03T04:20:37.683Z,2.00
2023-03-03T04:23:07.726Z,2.00
2023-03-03T04:25:37.699Z,2.10
2023-03-03T04:28:18.916Z,2.10
2023-03-03T04:30:50.487Z,2.00
2023-03-03T04:33:21.985Z,2.10
2023-03-03T04:35:53.062Z,2.10
2023-03-03T04:38:23.657Z,1.90
2023-03-03T04:40:54.838Z,1.90
2023-03-03T04:43:28.898Z,2.00
2023-03-03T04:45:59.739Z,1.90
2023-03-03T04:48:29.750Z,2.00
2023-03-03T04:50:59.898Z,1.80
2023-03-03T04:53:30.871Z,1.70
2023-03-03T04:56:01.211Z,1.70
2023-03-03T04:58:34.047Z,1.60
2023-03-03T05:01:04.944Z,1.60
2023-03-03T05:03:36.093Z,1.70
2023-03-03T05:06:06.173Z,1.70
2023-03-03T05:08:36.419Z,1.60
2023-03-03T05:11:07.477Z,1.60
2023-03-03T05:13:40.061Z,1.70
2023-03-03T05:16:10.847Z,1.90
2023-03-03T05:18:41.624Z,1.90
2023-03-03T05:21:11.714Z,1.80
2023-03-03T05:23:41.706Z,1.80
2023-03-03T05:26:11.833Z,1.90
2023-03-03T05:28:44.330Z,2.00
2023-03-03T05:31:14.654Z,2.00
2023-03-03T05:33:45.486Z,1.90
2023-03-03T05:36:15.595Z,1.90
2023-03-03T05:38:45.603Z,2.00
2023-03-03T05:41:15.628Z,2.10
2023-03-03T05:43:48.150Z,2.20
2023-03-03T05:46:18.249Z,2.10
2023-03-03T05:48:48.288Z,2.20
2023-03-03T05:51:18.273Z,2.40
2023-03-03T05:53:48.453Z,2.40
2023-03-03T05:56:18.447Z,2.50
2023-03-03T05:58:51.015Z,2.60
2023-03-03T06:01:22.219Z,2.40
2023-03-03T06:03:52.194Z,2.40
2023-03-03T06:06:22.190Z,2.40
2023-03-03T06:08:55.551Z,2.50
2023-03-03T06:11:27.187Z,2.50
2023-03-03T06:14:00.110Z,2.60
2023-03-03T06:16:30.254Z,2.60
2023-03-03T06:19:00.277Z,2.60
2023-03-03T06:21:30.267Z,2.60
2023-03-03T06:24:00.299Z,2.70
2023-03-03T06:26:30.352Z,2.70
2023-03-03T06:29:03.163Z,2.80
2023-03-03T06:31:33.285Z,2.80
2023-03-03T06:34:03.309Z,2.90
2023-03-03T06:36:33.280Z,2.80
2023-03-03T06:39:04.132Z,2.90
2023-03-03T06:41:34.242Z,3.00
2023-03-03T06:44:07.236Z,3.10
2023-03-03T06:46:37.231Z,3.20
2023-03-03T06:49:07.595Z,3.30
2023-03-03T06:51:41.244Z,3.30
2023-03-03T06:54:16.280Z,3.40
2023-03-03T06:56:48.358Z,3.50
2023-03-03T06:59:24.253Z,3.70
2023-03-03T07:01:54.879Z,3.80
2023-03-03T07:04:33.416Z,4.00
2023-03-03T07:07:17.809Z,4.10
2023-03-03T07:09:50.144Z,4.20
2023-03-03T07:12:23.017Z,4.20
2023-03-03T07:15:06.198Z,4.10
2023-03-03T07:17:37.369Z,4.10
2023-03-03T07:20:21.130Z,4.30
2023-03-03T07:22:51.519Z,4.50
2023-03-03T07:25:36.503Z,4.80
2023-03-03T07:28:24.892Z,4.80
2023-03-03T07:30:59.866Z,4.70
2023-03-03T07:33:34.457Z,4.90
2023-03-03T07:36:06.867Z,5.10
2023-03-03T07:38:45.448Z,5.20
2023-03-03T07:41:23.536Z,5.10
2023-03-03T07:43:57.217Z,5.20
2023-03-03T07:46:37.409Z,5.40
2023-03-03T07:49:25.648Z,5.40
2023-03-03T07:51:59.365Z,5.50
2023-03-03T07:54:40.365Z,5.60
2023-03-03T07:57:24.191Z,6.20
2023-03-03T07:59:57.515Z,6.60
2023-03-03T08:02:43.066Z,6.90
2023-03-03T08:05:34.003Z,7.60
2023-03-03T08:08:30.628Z,8.20
2023-03-03T08:11:02.829Z,7.80
2023-03-03T08:13:41.687Z,8.00
2023-03-03T08:16:40.114Z,8.00
2023-03-03T08:19:19.852Z,8.30
2023-03-03T08:21:50.090Z,8.20
2023-03-03T08:24:20.108Z,7.80
2023-03-03T08:26:50.249Z,7.40
2023-03-03T08:29:20.232Z,7.00
2023-03-03T08:31:50.204Z,6.90
2023-03-03T08:34:22.750Z,6.90
2023-03-03T08:36:52.745Z,7.60
2023-03-03T08:39:22.724Z,8.50
2023-03-03T08:41:53.036Z,9.00
2023-03-03T08:44:23.114Z,9.30
2023-03-03T08:46:53.191Z,8.50
2023-03-03T08:49:25.822Z,8.20
2023-03-03T08:51:57.114Z,8.10
2023-03-03T08:54:27.128Z,7.90
2023-03-03T08:56:57.138Z,7.90
2023-03-03T08:59:27.396Z,7.80
2023-03-03T09:01:57.693Z,7.70
2023-03-03T09:04:30.292Z,8.40
2023-03-03T09:07:00.460Z,8.90
2023-03-03T09:09:30.631Z,8.80
2023-03-03T09:12:10.308Z,8.50
2023-03-03T09:14:40.241Z,8.60
2023-03-03T09:17:27.614Z,9.10
2023-03-03T09:20:13.288Z,9.60
2023-03-03T09:22:43.326Z,9.80
2023-03-03T09:25:30.066Z,9.80
2023-03-03T09:28:00.462Z,10.20
2023-03-03T09:30:44.309Z,10.20
2023-03-03T09:33:28.036Z,10.40
2023-03-03T09:36:23.316Z,10.20
2023-03-03T09:38:54.141Z,10.80
2023-03-03T09:42:01.559Z,11.10
2023-03-03T09:45:22.432Z,11.10
2023-03-03T09:48:31.042Z,10.90
2023-03-03T09:51:23.365Z,10.70
2023-03-03T09:54:26.394Z,11.20
2023-03-03T09:57:07.952Z,11.60
2023-03-03T10:00:00.294Z,11.80
2023-03-03T10:02:56.834Z,12.20
2023-03-03T10:05:42.612Z,12.30
2023-03-03T10:08:42.512Z,12.60
2023-03-03T10:11:24.872Z,14.80
2023-03-03T10:14:28.608Z,15.00
2023-03-03T10:17:21.613Z,14.60
2023-03-03T10:20:15.036Z,13.80
2023-03-03T10:22:56.293Z,14.40
2023-03-03T10:25:42.560Z,15.90
2023-03-03T10:28:44.169Z,16.00
2023-03-03T10:31:29.548Z,15.70
2023-03-03T10:34:13.024Z,16.10
2023-03-03T10:36:58.344Z,15.40
2023-03-03T10:40:05.364Z,15.70
2023-03-03T10:43:26.123Z,15.70
2023-03-03T10:46:35.792Z,15.60
2023-03-03T10:49:45.575Z,15.40
2023-03-03T10:52:34.397Z,15.70
2023-03-03T10:55:40.926Z,16.00
2023-03-03T10:58:41.525Z,15.00
2023-03-03T11:01:29.622Z,14.40
2023-03-03T11:04:28.120Z,13.30
2023-03-03T11:07:09.016Z,13.10
2023-03-03T11:10:02.976Z,13.20
2023-03-03T11:12:48.952Z,13.10
2023-03-03T11:15:44.220Z,12.30
2023-03-03T11:18:39.300Z,12.20
2023-03-03T11:21:22.426Z,12.30
2023-03-03T11:24:27.736Z,12.40
2023-03-03T11:27:32.522Z,12.70
2023-03-03T11:30:37.525Z,11.90
2023-03-03T11:33:13.119Z,11.60
2023-03-03T11:35:52.347Z,11.60
2023-03-03T11:38:48.276Z,12.20
2023-03-03T11:41:34.621Z,12.60
2023-03-03T11:44:20.191Z,13.60
2023-03-03T11:47:00.993Z,13.80
2023-03-03T11:49:39.832Z,13.70
2023-03-03T11:52:27.705Z,12.90
2023-03-03T11:55:07.243Z,12.60
2023-03-03T11:57:46.359Z,12.90
2023-03-03T12:00:26.894Z,13.30
2023-03-03T12:03:22.903Z,13.30
2023-03-03T12:06:03.600Z,13.10
2023-03-03T12:09:06.297Z,12.40
2023-03-03T12:11:51.627Z,11.70
2023-03-03T12:14:41.309Z,11.70
2023-03-03T12:17:31.490Z,11.50
2023-03-03T12:20:17.163Z,11.10
2023-03-03T12:23:07.319Z,11.00
2023-03-03T12:25:45.323Z,10.40
2023-03-03T12:28:23.572Z,10.00
2023-03-03T12:31:32.832Z,9.70
2023-03-03T12:34:13.061Z,10.10
2023-03-03T12:37:15.574Z,10.40
2023-03-03T12:40:00.411Z,10.40
2023-03-03T12:42:45.769Z,10.10
2023-03-03T12:45:38.569Z,10.10
2023-03-03T12:48:18.455Z,10.00
2023-03-03T12:51:06.951Z,10.00
2023-03-03T12:53:54.723Z,9.80
2023-03-03T12:56:39.090Z,9.60
2023-03-03T12:59:19.423Z,9.70
2023-03-03T13:02:07.669Z,9.60
2023-03-03T13:04:45.794Z,9.90
2023-03-03T13:07:26.262Z,9.70
2023-03-03T13:10:15.887Z,9.80
2023-03-03T13:12:51.835Z,9.80
2023-03-03T13:15:32.784Z,9.90
2023-03-03T13:18:28.229Z,9.70
2023-03-03T13:21:11.120Z,9.60
2023-03-03T13:23:53.877Z,9.70
2023-03-03T13:26:36.592Z,9.80
2023-03-03T13:29:18.111Z,9.90
2023-03-03T13:31:54.870Z,10.00
2023-03-03T13:34:39.966Z,10.10
2023-03-03T13:37:22.504Z,10.10
2023-03-03T13:40:03.698Z,9.90
2023-03-03T13:42:44.439Z,9.80
2023-03-03T13:45:26.899Z,9.90
2023-03-03T13:48:10.985Z,9.90
2023-03-03T13:50:49.908Z,9.90
2023-03-03T13:53:48.096Z,9.90
2023-03-03T13:56:45.922Z,9.80
2023-03-03T13:59:31.919Z,9.70
2023-03-03T14:02:18.268Z,9.60
2023-03-03T14:04:56.916Z,9.50
2023-03-03T14:07:35.486Z,9.50
2023-03-03T14:10:19.390Z,9.60
2023-03-03T14:13:03.403Z,9.60
2023-03-03T14:15:41.379Z,9.50
2023-03-03T14:18:32.633Z,9.40
2023-03-03T14:21:10.905Z,9.20
2023-03-03T14:23:57.502Z,9.20
2023-03-03T14:26:28.580Z,9.10
2023-03-03T14:29:21.856Z,9.20
2023-03-03T14:31:54.535Z,9.20
2023-03-03T14:34:41.245Z,9.30
2023-03-03T14:37:29.385Z,9.30
2023-03-03T14:40:21.728Z,9.30
2023-03-03T14:43:02.014Z,9.20
2023-03-03T14:45:40.264Z,9.00
2023-03-03T14:48:21.004Z,9.00
2023-03-03T14:50:54.942Z,9.00
2023-03-03T14:53:36.968Z,9.10
2023-03-03T14:56:27.555Z,9.10
2023-03-03T14:59:19.391Z,9.10
2023-03-03T15:01:50.567Z,9.10
2023-03-03T15:04:31.643Z,9.10
2023-03-03T15:07:01.791Z,9.00
2023-03-03T15:09:43.303Z,8.90
2023-03-03T15:12:26.442Z,8.70
2023-03-03T15:15:13.450Z,8.70
2023-03-03T15:17:47.541Z,8.70
2023-03-03T15:20:41.812Z,8.70
2023-03-03T15:23:50.653Z,8.60
2023-03-03T15:26:30.169Z,8.60
2023-03-03T15:29:14.449Z,8.60
2023-03-03T15:31:56.683Z,8.60
2023-03-03T15:34:43.461Z,8.50
2023-03-03T15:37:38.998Z,8.50
2023-03-03T15:40:25.867Z,8.40
2023-03-03T15:43:15.319Z,8.40
2023-03-03T15:45:57.497Z,8.30
2023-03-03T15:48:49.219Z,8.30
2023-03-03T15:51:46.053Z,8.40
2023-03-03T15:54:44.787Z,8.40
2023-03-03T15:57:30.894Z,8.10
2023-03-03T16:00:25.744Z,8.10
2023-03-03T16:03:02.351Z,8.00
2023-03-03T16:05:36.735Z,8.00
2023-03-03T16:08:17.615Z,8.00
2023-03-03T16:11:09.679Z,7.80
2023-03-03T16:14:10.189Z,7.80
2023-03-03T16:16:49.768Z,7.90
2023-03-03T16:19:45.283Z,7.80
2023-03-03T16:22:48.794Z,7.70
2023-03-03T16:25:37.011Z,7.60
2023-03-03T16:28:19.757Z,7.40
2023-03-03T16:30:59.332Z,7.30
2023-03-03T16:33:43.971Z,7.20
2023-03-03T16:36:31.216Z,7.20
2023-03-03T16:39:12.363Z,7.10
2023-03-03T16:41:53.163Z,6.90
2023-03-03T16:44:42.414Z,6.80
2023-03-03T16:47:34.221Z,6.70
2023-03-03T16:50:26.443Z,6.50
2023-03-03T16:53:06.816Z,6.50
2023-03-03T16:55:51.438Z,6.50
2023-03-03T16:58:41.695Z,6.50
2023-03-03T17:01:27.948Z,6.50
2023-03-03T17:04:03.808Z,6.40
2023-03-03T17:06:48.327Z,6.30
2023-03-03T17:10:00.615Z,6.20
2023-03-03T17:12:55.102Z,6.10
2023-03-03T17:15:45.770Z,6.00
2023-03-03T17:18:38.694Z,5.90
2023-03-03T17:21:21.180Z,5.80
2023-03-03T17:24:05.827Z,5.60
2023-03-03T17:26:56.305Z,5.60
2023-03-03T17:30:13.957Z,5.40
2023-03-03T17:33:13.013Z,5.40
2023-03-03T17:36:11.910Z,5.30
2023-03-03T17:38:59.042Z,5.10
2023-03-03T17:41:41.473Z,5.00
2023-03-03T17:44:19.895Z,4.90
2023-03-03T17:46:55.681Z,4.80
2023-03-03T17:50:05.929Z,4.70
2023-03-03T17:53:06.487Z,4.80
2023-03-03T17:56:05.558Z,4.70
2023-03-03T17:59:26.668Z,4.60
2023-03-03T18:02:39.875Z,4.60
2023-03-03T18:06:01.357Z,4.50
2023-03-03T18:09:14.143Z,4.40
2023-03-03T18:12:04.538Z,4.40
2023-03-03T18:15:07.434Z,4.40
2023-03-03T18:17:51.296Z,4.40
2023-03-03T18:20:39.202Z,4.40
2023-03-03T18:23:44.385Z,4.40
2023-03-03T18:26:37.088Z,4.30
2023-03-03T18:29:28.046Z,4.30
2023-03-03T18:32:22.264Z,4.30
2023-03-03T18:35:20.635Z,4.30
2023-03-03T18:37:50.709Z,4.20
2023-03-03T18:40:35.713Z,4.30
2023-03-03T18:43:52.109Z,4.30
2023-03-03T18:47:04.020Z,4.20
2023-03-03T18:49:56.497Z,4.20
2023-03-03T18:52:32.390Z,4.20
2023-03-03T18:55:42.138Z,4.10
2023-03-03T18:58:41.876Z,4.00
2023-03-03T19:01:48.101Z,3.90
2023-03-03T19:04:27.163Z,3.90
2023-03-03T19:07:26.877Z,3.80
2023-03-03T19:10:03.856Z,3.70
2023-03-03T19:12:55.439Z,3.70
2023-03-03T19:15:51.571Z,3.60
2023-03-03T19:18:25.793Z,3.50
2023-03-03T19:21:03.411Z,3.60
2023-03-03T19:23:52.623Z,3.50
2023-03-03T19:26:50.560Z,3.50
2023-03-03T19:29:54.088Z,3.40
2023-03-03T19:32:48.783Z,3.40
2023-03-03T19:35:34.075Z,3.30
2023-03-03T19:38:23.711Z,3.30
2023-03-03T19:41:08.946Z,3.30
2023-03-03T19:43:50.367Z,3.40
2023-03-03T19:46:49.766Z,3.40
2023-03-03T19:49:36.956Z,3.40
2023-03-03T19:52:21.494Z,3.30
2023-03-03T19:55:09.969Z,3.30
2023-03-03T19:58:01.557Z,3.30
2023-03-03T20:00:44.243Z,3.30
2023-03-03T20:04:00.048Z,3.30
2023-03-03T20:06:49.364Z,3.30
2023-03-03T20:09:33.911Z,3.20
2023-03-03T20:12:29.657Z,3.10
2023-03-03T20:15:14.004Z,3.10
2023-03-03T20:17:58.653Z,3.00
2023-03-03T20:20:59.404Z,3.00
2023-03-03T20:23:40.393Z,2.90
2023-03-03T20:26:23.686Z,2.90
2023-03-03T20:29:19.955Z,2.80
2023-03-03T20:32:06.891Z,2.70
2023-03-03T20:34:52.184Z,2.60
2023-03-03T20:37:38.776Z,2.60
2023-03-03T20:40:27.147Z,2.50
2023-03-03T20:43:13.879Z,2.50
2023-03-03T20:46:00.722Z,2.50
2023-03-03T20:48:55.643Z,2.40
2023-03-03T20:51:34.243Z,2.40
2023-03-03T20:54:20.744Z,2.30
2023-03-03T20:57:02.708Z,2.20
2023-03-03T20:59:41.134Z,2.10
2023-03-03T21:02:23.434Z,2.20
2023-03-03T21:05:13.470Z,2.20
2023-03-03T21:07:56.896Z,2.10
2023-03-03T21:10:33.861Z,2.20
2023-03-03T21:13:30.985Z,2.10
2023-03-03T21:16:08.835Z,2.10
2023-03-03T21:18:38.867Z,2.10
2023-03-03T21:21:09.634Z,2.10
2023-03-03T21:23:39.707Z,1.90
2023-03-03T21:26:12.260Z,1.80
2023-03-03T21:29:03.614Z,1.80
2023-03-03T21:31:48.204Z,1.90
2023-03-03T21:34:27.881Z,1.70
2023-03-03T21:36:59.064Z,1.80
2023-03-03T21:39:33.280Z,1.70
2023-03-03T21:42:09.502Z,1.70
2023-03-03T21:44:44.422Z,1.70
2023-03-03T21:47:17.710Z,1.60
2023-03-03T21:49:50.317Z,1.60
2023-03-03T21:52:23.395Z,1.60
2023-03-03T21:54:55.081Z,1.60
2023-03-03T21:57:27.918Z,1.50
2023-03-03T21:59:57.922Z,1.40
2023-03-03T22:02:27.838Z,1.20
2023-03-03T22:04:57.929Z,1.20
2023-03-03T22:07:27.914Z,1.20
2023-03-03T22:09:57.894Z,1.10
2023-03-03T22:12:30.429Z,1.10
2023-03-03T22:15:00.400Z,1.00
2023-03-03T22:17:30.341Z,0.90
2023-03-03T22:20:00.307Z,0.80
2023-03-03T22:22:30.275Z,0.70
2023-03-03T22:25:00.195Z,0.70
2023-03-03T22:27:32.912Z,0.70
2023-03-03T22:30:03.182Z,0.60
2023-03-03T22:32:33.260Z,0.60
2023-03-03T22:35:03.328Z,0.60
2023-03-03T22:37:33.264Z,0.50
2023-03-03T22:40:03.464Z,0.40
2023-03-03T22:42:35.978Z,0.30
2023-03-03T22:45:06.528Z,0.30
2023-03-03T22:47:37.028Z,0.20
2023-03-03T22:50:08.460Z,0.20
2023-03-03T22:52:38.515Z,0.20
2023-03-03T22:55:10.477Z,0.20
2023-03-03T22:57:43.241Z,0.20
2023-03-03T23:00:16.697Z,0.30
2023-03-03T23:02:46.697Z,0.30
2023-03-03T23:05:16.670Z,0.20
2023-03-03T23:07:46.682Z,0.10
2023-03-03T23:10:16.959Z,0.00
2023-03-03T23:12:49.548Z,-0.10
2023-03-03T23:15:20.278Z,-0.20
2023-03-03T23:17:50.325Z,-0.20
2023-03-03T23:20:23.619Z,-0.50
2023-03-03T23:22:54.039Z,-0.50
2023-03-03T23:25:25.906Z,-0.50
2023-03-03T23:27:59.511Z,-0.50
2023-03-03T23:30:29.887Z,-0.60
2023-03-03T23:32:59.812Z,-0.70
2023-03-03T23:35:29.792Z,-0.70
2023-03-03T23:37:59.735Z,-0.60
2023-03-03T23:40:29.726Z,-0.60
2023-03-03T23:43:02.324Z,-0.60
2023-03-03T23:45:32.427Z,-0.70
2023-03-03T23:48:02.506Z,-0.70
2023-03-03T23:50:33.276Z,-1.10
2023-03-03T23:53:03.203Z,-1.10
2023-03-03T23:55:33.455Z,-1.00
2023-03-03T23:58:06.772Z,-1.00
